Time;durP1;ratioP1;P1;durP2;ratioP2;P2;SDS_P1;SDS_P2;PMS_P1;PMS_P2;Temp;Humidity;BMP_temperature;BMP_pressure;BME280_temperature;BME280_humidity;BME280_pressure;Samples;Min_cycle;Max_cycle;Signal;HPM_P1;HPM_P2
2022/12/13 00:01:14;;;;;;;4.95;3.15;;;;;;;1.41;88.87;98407.28;4972221;28;20053;-72
2022/12/13 00:03:39;;;;;;;3.50;2.88;;;;;;;1.34;88.64;98421.69;4996080;28;20040;-78
2022/12/13 00:06:09;;;;;;;3.90;3.00;;;;;;;1.36;88.57;98414.53;4979712;28;20060;-80
2022/12/13 00:08:33;;;;;;;3.25;2.95;;;;;;;1.32;88.82;98424.38;4980010;28;20132;-76
2022/12/13 00:11:03;;;;;;;5.43;3.35;;;;;;;1.42;88.66;98427.34;4991178;28;20179;-77
2022/12/13 00:13:28;;;;;;;4.57;2.83;;;;;;;1.45;88.92;98435.06;4976763;28;20049;-75
2022/12/13 00:15:57;;;;;;;3.17;1.92;;;;;;;1.43;88.85;98426.44;4979074;28;20769;-77
2022/12/13 00:18:22;;;;;;;2.67;1.67;;;;;;;1.47;88.71;98432.38;4979409;28;20038;-78
2022/12/13 00:20:46;;;;;;;4.43;2.80;;;;;;;1.42;nan;98432.59;4980533;28;20045;-80
2022/12/13 00:23:11;;;;;;;4.05;3.35;;;;;;;1.33;88.55;98435.72;4998211;28;20114;-80
2022/12/13 00:25:36;;;;;;;4.82;3.45;;;;;;;1.44;89.01;98425.50;4965060;28;20037;-74
2022/12/13 00:28:00;;;;;;;4.47;3.20;;;;;;;1.38;88.76;98439.78;4963829;28;20158;-76
2022/12/13 00:30:25;;;;;;;6.22;4.07;;;;;;;1.47;88.69;98440.25;4979586;28;20107;-72
2022/12/13 00:32:49;;;;;;;2.38;2.17;;;;;;;1.41;88.72;98433.53;4998403;28;20496;-75
2022/12/13 00:35:14;;;;;;;4.35;3.50;;;;;;;1.25;88.70;98440.50;4994757;28;20053;-79
2022/12/13 00:37:38;;;;;;;4.60;2.90;;;;;;;1.26;89.10;98429.09;4993137;28;20042;-77
2022/12/13 00:40:04;;;;;;;4.07;3.33;;;;;;;1.25;89.35;98427.38;4959811;28;20050;-80
2022/12/13 00:42:28;;;;;;;5.82;3.65;;;;;;;1.29;89.75;98421.91;4996527;28;20033;-77
2022/12/13 00:44:53;;;;;;;4.50;3.30;;;;;;;1.44;89.72;98415.00;4972387;28;20103;-76
2022/12/13 00:47:19;;;;;;;4.93;3.90;;;;;;;1.31;89.61;98422.69;4962968;28;20504;-75
2022/12/13 00:49:44;;;;;;;5.78;3.65;;;;;;;1.37;89.59;98418.88;4978179;28;20049;-70
2022/12/13 00:52:08;;;;;;;4.70;3.25;;;;;;;1.39;89.54;98420.47;4977395;28;20519;-72
2022/12/13 00:54:33;;;;;;;7.40;4.35;;;;;;;1.25;89.93;98428.25;4993707;28;20059;-71
2022/12/13 00:56:57;;;;;;;5.45;3.90;;;;;;;1.32;89.61;98428.78;4995228;28;20566;-71
2022/12/13 00:59:22;;;;;;;5.57;3.90;;;;;;;1.38;90.00;98418.78;4963038;28;20065;-71
2022/12/13 01:01:47;;;;;;;6.43;3.72;;;;;;;1.36;89.99;98428.50;4977786;28;20030;-72
2022/12/13 01:04:12;;;;;;;2.80;2.25;;;;;;;1.50;89.88;98432.19;4975543;28;20050;-71
2022/12/13 01:06:43;;;;;;;6.50;4.68;;;;;;;1.41;89.80;98421.25;4957812;28;20081;-71
2022/12/13 01:09:16;;;;;;;5.32;3.65;;;;;;;1.43;89.67;98411.53;4970846;28;20041;-69
2022/12/13 01:11:40;;;;;;;5.78;3.97;;;;;;;1.47;89.89;98406.94;4964721;28;20045;-74
2022/12/13 01:14:05;;;;;;;4.85;3.55;;;;;;;1.48;89.37;98403.38;4993715;28;20045;-69
2022/12/13 01:16:29;;;;;;;6.72;4.28;;;;;;;1.39;89.87;98398.63;4994698;28;20091;-68
2022/12/13 01:18:56;;;;;;;5.85;3.65;;;;;;;1.52;89.64;98415.41;4977089;28;20048;-69
2022/12/13 01:21:21;;;;;;;6.22;4.57;;;;;;;1.49;89.24;98406.84;4976146;28;20025;-66
2022/12/13 01:23:46;;;;;;;7.20;4.15;;;;;;;1.52;89.11;98415.41;4976408;28;20060;-66
2022/12/13 01:26:20;;;;;;;6.47;4.10;;;;;;;1.56;89.25;98429.25;4976607;28;20087;-65
2022/12/13 01:28:46;;;;;;;6.63;4.03;;;;;;;1.42;89.05;98430.81;4976377;28;20039;-65
2022/12/13 01:31:14;;;;;;;5.78;3.58;;;;;;;1.57;89.32;98409.94;4993063;28;20052;-65
2022/12/13 01:33:39;;;;;;;5.50;3.42;;;;;;;1.60;88.89;98407.97;4994320;28;20072;-68
2022/12/13 01:36:07;;;;;;;5.90;3.78;;;;;;;1.58;88.59;98401.94;4976956;28;20132;-68
2022/12/13 01:38:33;;;;;;;8.20;4.43;;;;;;;1.49;88.51;98412.09;4994194;28;20590;-71
2022/12/13 01:40:58;;;;;;;4.38;2.80;;;;;;;1.50;88.76;98412.03;4957860;28;20124;-72
2022/12/13 01:43:46;;;;;;;5.68;4.20;;;;;;;1.50;88.91;98419.03;4979319;28;20034;-71
2022/12/13 01:46:13;;;;;;;6.28;4.45;;;;;;;1.42;89.39;98432.59;4904775;28;20042;-71
2022/12/13 01:48:46;;;;;;;6.47;3.75;;;;;;;1.50;89.33;98424.31;4918406;28;20050;-70
2022/12/13 01:51:14;;;;;;;4.35;3.17;;;;;;;1.52;89.61;98419.81;4920633;28;20051;-70
2022/12/13 01:53:44;;;;;;;7.20;4.75;;;;;;;1.43;89.51;98439.56;4920933;28;20034;-69
2022/12/13 01:56:25;;;;;;;7.13;4.60;;;;;;;1.52;90.02;98422.44;4936958;28;20046;-69
2022/12/13 01:58:53;;;;;;;4.15;3.50;;;;;;;1.53;90.01;98422.38;4920570;28;20130;-67
2022/12/13 02:01:19;;;;;;;7.22;2.90;;;;;;;1.61;89.52;98425.41;4920637;28;20074;-68
2022/12/13 02:03:44;;;;;;;6.72;4.68;;;;;;;1.61;89.18;98425.41;4922598;28;20398;-72
2022/12/13 02:06:19;;;;;;;7.25;4.70;;;;;;;1.53;89.60;98426.78;4919004;29;20059;-70
2022/12/13 02:08:45;;;;;;;9.10;4.95;;;;;;;1.52;89.32;98420.66;4920092;29;20473;-71
2022/12/13 02:11:10;;;;;;;7.85;5.47;;;;;;;1.45;89.64;98421.94;4918459;28;20051;-68
2022/12/13 02:13:37;;;;;;;6.75;5.00;;;;;;;1.39;89.68;98420.47;4919228;29;20648;-69
2022/12/13 02:16:15;;;;;;;6.93;4.32;;;;;;;1.64;90.04;98422.63;4906656;29;20581;-69
2022/12/13 02:18:56;;;;;;;8.35;5.25;;;;;;;1.66;89.89;98419.91;4910784;29;20058;-70
2022/12/13 02:21:24;;;;;;;6.68;4.93;;;;;;;1.73;89.67;98435.25;4908960;29;20054;-71
2022/12/13 02:24:19;;;;;;;8.02;5.03;;;;;;;1.64;89.47;98425.25;4962330;28;20054;-68
2022/12/13 02:26:55;;;;;;;9.40;5.63;;;;;;;1.61;89.73;98421.94;4960519;28;20045;-71
2022/12/13 02:29:19;;;;;;;4.95;3.53;;;;;;;1.72;89.54;98422.19;4957075;28;20057;-69
2022/12/13 02:31:58;;;;;;;8.00;5.10;;;;;;;1.68;89.39;98428.56;4973457;28;20496;-72
2022/12/13 02:34:43;;;;;;;8.57;5.75;;;;;;;1.58;89.47;98430.81;4959629;28;20038;-69
2022/12/13 02:37:24;;;;;;;7.63;5.18;;;;;;;1.62;89.46;98421.00;4943836;28;20381;-70
2022/12/13 02:40:13;;;;;;;8.48;5.47;;;;;;;1.61;89.56;98417.53;4959849;28;20413;-70
2022/12/13 02:43:01;;;;;;;8.10;5.25;;;;;;;1.59;89.57;98426.41;4960161;28;20034;-70
2022/12/13 02:45:36;;;;;;;8.63;5.95;;;;;;;1.74;89.52;98433.47;4966785;28;20052;-70
2022/12/13 02:48:04;;;;;;;7.65;4.63;;;;;;;1.78;88.99;98427.97;4958256;28;20034;-71
2022/12/13 02:50:31;;;;;;;7.25;4.85;;;;;;;1.67;88.98;98427.72;4959763;28;20038;-73
2022/12/13 02:52:57;;;;;;;8.43;5.22;;;;;;;1.59;88.83;98427.28;4957844;28;20042;-71
2022/12/13 02:55:23;;;;;;;9.65;5.85;;;;;;;1.54;88.93;98431.94;4974293;28;20054;-68
2022/12/13 02:57:48;;;;;;;5.25;3.40;;;;;;;1.65;89.29;98431.34;4984636;28;20052;-71
2022/12/13 03:00:17;;;;;;;8.10;5.15;;;;;;;1.65;89.48;98426.09;4967049;28;20041;-69
2022/12/13 03:02:42;;;;;;;8.25;5.05;;;;;;;1.65;89.35;98433.97;4965557;28;20068;-69
2022/12/13 03:08:27;;;;;;;3.83;2.47;;;;;;;1.68;89.62;98428.56;4980532;28;20096;-70
2022/12/13 03:11:05;;;;;;;7.03;4.43;;;;;;;1.66;89.50;98431.28;4978640;28;20100;-67
2022/12/13 03:13:44;;;;;;;6.88;4.07;;;;;;;1.62;89.33;98427.13;4966933;28;20132;-68
2022/12/13 03:16:21;;;;;;;7.93;4.72;;;;;;;1.74;89.02;98436.94;4978573;28;20038;-71
2022/12/13 03:18:47;;;;;;;7.72;4.88;;;;;;;1.58;89.35;98430.81;4978013;28;20050;-69
2022/12/13 03:21:12;;;;;;;6.18;4.70;;;;;;;1.55;89.20;98431.03;4962055;28;20038;-68
2022/12/13 03:23:37;;;;;;;8.25;5.10;;;;;;;1.63;89.13;98434.06;4960533;28;20046;-73
2022/12/13 03:26:24;;;;;;;8.52;5.43;;;;;;;1.67;89.62;98434.75;4959890;28;20041;-71
2022/12/13 03:28:49;;;;;;;4.57;3.55;;;;;;;1.79;89.05;98439.34;4959270;28;20042;-72
2022/12/13 03:31:14;;;;;;;8.52;5.35;;;;;;;1.65;88.70;98437.47;4945524;28;20048;-73
2022/12/13 03:33:38;;;;;;;9.23;5.75;;;;;;;1.57;88.79;98439.66;4959165;28;20046;-72
2022/12/13 03:36:04;;;;;;;8.77;5.47;;;;;;;1.57;89.07;98433.56;4959229;28;20042;-72
2022/12/13 03:38:29;;;;;;;8.10;5.25;;;;;;;1.57;89.05;98438.81;4976045;28;20192;-74
2022/12/13 03:41:09;;;;;;;7.80;4.93;;;;;;;1.67;89.54;98445.25;4946458;28;20074;-73
2022/12/13 03:43:34;;;;;;;8.93;5.00;;;;;;;1.71;89.38;98446.78;4951850;28;20068;-71
2022/12/13 03:46:00;;;;;;;11.10;4.78;;;;;;;1.74;89.26;98446.59;4967492;28;20512;-74
2022/12/13 03:48:24;;;;;;;9.00;6.00;;;;;;;1.54;88.96;98438.97;4946306;28;20049;-72
2022/12/13 03:50:50;;;;;;;7.97;5.32;;;;;;;1.51;88.90;98439.97;4980425;28;20057;-72
2022/12/13 03:53:15;;;;;;;6.65;4.70;;;;;;;1.57;89.10;98437.03;4979731;28;20042;-72
2022/12/13 03:55:39;;;;;;;5.90;4.07;;;;;;;1.64;89.59;98435.75;4947023;28;20374;-72
2022/12/13 03:58:04;;;;;;;7.57;4.70;;;;;;;1.60;89.74;98439.47;4979230;28;20497;-73
2022/12/13 04:00:29;;;;;;;4.00;2.85;;;;;;;1.63;89.63;98438.47;4961105;28;20049;-72
2022/12/13 04:02:53;;;;;;;7.03;4.15;;;;;;;1.65;89.43;98420.84;4991958;28;20041;-72
2022/12/13 04:05:18;;;;;;;6.25;4.88;;;;;;;1.51;89.33;98424.22;4960795;28;20133;-73
2022/12/13 04:07:43;;;;;;;6.93;4.35;;;;;;;1.50;89.41;98429.56;4976778;28;20089;-71
2022/12/13 04:10:08;;;;;;;5.95;3.90;;;;;;;1.54;89.68;98438.97;4969644;28;20064;-72
2022/12/13 04:15:16;;;;;;;9.52;5.55;;;;;;;1.60;89.64;98441.25;4996685;28;20404;-72
2022/12/13 04:17:40;;;;;;;7.70;4.90;;;;;;;1.51;89.33;98433.88;4996543;28;20453;-72
2022/12/13 04:20:06;;;;;;;7.95;4.45;;;;;;;1.51;89.32;98437.34;4978634;28;20045;-72
2022/12/13 04:22:30;;;;;;;7.47;4.22;;;;;;;1.53;89.69;98434.66;4994818;28;20045;-72
2022/12/13 04:24:55;;;;;;;6.93;3.83;;;;;;;1.51;89.58;98439.97;4994969;28;20092;-72
2022/12/13 04:27:20;;;;;;;6.80;4.38;;;;;;;1.51;89.70;98445.22;4961739;28;20093;-71
2022/12/13 04:29:44;;;;;;;7.50;4.78;;;;;;;1.55;89.92;98446.78;4995626;28;20054;-72
2022/12/13 04:32:09;;;;;;;9.07;5.38;;;;;;;1.57;89.58;98442.28;4995889;28;20072;-72
2022/12/13 04:34:33;;;;;;;7.32;4.07;;;;;;;1.57;89.38;98447.53;4977962;28;20040;-73
2022/12/13 04:36:58;;;;;;;8.73;5.40;;;;;;;1.53;89.42;98442.53;4978508;28;20575;-73
2022/12/13 04:39:23;;;;;;;9.95;4.72;;;;;;;1.44;89.93;98460.47;4978665;28;20049;-73
2022/12/13 04:41:48;;;;;;;7.85;4.80;;;;;;;1.54;89.80;98444.22;4960954;28;20037;-73
2022/12/13 04:44:13;;;;;;;8.25;5.30;;;;;;;1.52;89.81;98441.69;4969328;28;20069;-72
2022/12/13 04:46:37;;;;;;;7.25;4.43;;;;;;;1.65;89.80;98434.84;4988620;28;20084;-72
2022/12/13 04:49:02;;;;;;;9.60;5.93;;;;;;;1.64;89.58;98438.38;4994916;28;20045;-72
2022/12/13 04:51:27;;;;;;;9.50;5.30;;;;;;;1.65;89.57;98442.72;4995710;28;20045;-72
2022/12/13 04:53:52;;;;;;;6.70;4.60;;;;;;;1.65;89.60;98453.22;4979365;28;20045;-73
2022/12/13 04:56:16;;;;;;;5.45;3.65;;;;;;;1.73;89.45;98456.28;4975643;28;20042;-72
2022/12/13 04:58:41;;;;;;;8.85;5.50;;;;;;;1.66;89.54;98459.31;4969006;28;20037;-70
2022/12/13 05:01:07;;;;;;;9.65;5.43;;;;;;;1.64;89.40;98461.19;4966587;28;20876;-71
2022/12/13 05:03:31;;;;;;;7.78;4.78;;;;;;;1.56;89.41;98456.34;4977121;28;20408;-71
2022/12/13 05:05:56;;;;;;;7.63;5.40;;;;;;;1.49;89.58;98465.47;4972883;28;20423;-71
2022/12/13 05:08:21;;;;;;;7.50;5.07;;;;;;;1.60;90.24;98457.88;4959300;28;20044;-71
2022/12/13 05:10:46;;;;;;;9.70;5.60;;;;;;;1.59;90.24;98452.69;4973725;28;20045;-71
2022/12/13 05:13:10;;;;;;;8.38;5.00;;;;;;;1.68;90.11;98460.09;4980051;28;20052;-72
2022/12/13 05:15:35;;;;;;;7.47;4.45;;;;;;;1.63;90.09;98452.44;4999659;28;20045;-70
2022/12/13 05:18:05;;;;;;;7.40;5.38;;;;;;;1.64;90.00;98450.69;5002291;28;20049;-72
2022/12/13 05:20:30;;;;;;;7.63;5.20;;;;;;;1.70;90.18;98461.69;5002507;28;20116;-71
2022/12/13 05:22:56;;;;;;;4.40;2.78;;;;;;;1.81;89.82;98459.31;5000828;28;20136;-69
2022/12/13 05:25:21;;;;;;;11.02;6.10;;;;;;;1.75;89.50;98464.91;4998714;28;20029;-71
2022/12/13 05:27:45;;;;;;;6.65;4.60;;;;;;;1.73;89.90;98465.94;4965065;28;20041;-71
2022/12/13 05:30:11;;;;;;;6.15;3.85;;;;;;;1.81;89.94;98464.56;4999160;28;20167;-70
2022/12/13 05:32:37;;;;;;;7.85;5.15;;;;;;;1.66;89.89;98470.69;4999008;28;20088;-71
2022/12/13 05:35:02;;;;;;;7.68;4.95;;;;;;;1.66;89.86;98465.44;4981898;28;20531;-71
2022/12/13 05:37:28;;;;;;;4.45;3.40;;;;;;;1.81;89.77;98464.56;4999538;28;20127;-71
2022/12/13 05:39:53;;;;;;;8.07;4.95;;;;;;;1.76;89.73;98473.66;4965034;28;20132;-72
2022/12/13 05:42:17;;;;;;;8.48;5.82;;;;;;;1.67;89.73;98475.00;5001813;28;20045;-70
2022/12/13 05:44:42;;;;;;;6.32;4.50;;;;;;;1.70;89.90;98466.94;4999299;28;20562;-67
2022/12/13 05:47:06;;;;;;;6.25;3.80;;;;;;;1.77;90.44;98465.69;4967082;28;20045;-67
2022/12/13 05:49:31;;;;;;;6.20;4.35;;;;;;;1.72;89.90;98454.56;4981344;28;20041;-67
2022/12/13 05:51:56;;;;;;;8.70;5.03;;;;;;;1.71;90.23;98465.16;4981151;28;20057;-67
2022/12/13 05:54:20;;;;;;;7.65;4.88;;;;;;;1.68;90.18;98473.22;4979835;28;20584;-66
2022/12/13 05:56:45;;;;;;;7.70;4.85;;;;;;;1.71;90.08;98463.38;5001866;28;20048;-67
2022/12/13 05:59:10;;;;;;;7.80;4.93;;;;;;;1.70;90.51;98461.69;5002721;28;20041;-67
2022/12/13 06:01:35;;;;;;;7.25;5.60;;;;;;;1.64;90.33;98466.44;4967971;28;20513;-70
2022/12/13 06:03:59;;;;;;;8.32;5.47;;;;;;;1.67;90.18;98474.16;4984088;28;20045;-70
2022/12/13 06:06:24;;;;;;;7.57;4.78;;;;;;;1.64;90.61;98477.78;4967789;28;20064;-70
2022/12/13 06:08:48;;;;;;;7.28;4.82;;;;;;;1.80;90.66;98477.81;4965250;28;20092;-70
2022/12/13 06:11:14;;;;;;;7.13;5.25;;;;;;;1.77;91.12;98478.81;4977137;28;20046;-69
2022/12/13 06:13:40;;;;;;;5.95;4.63;;;;;;;1.92;90.52;98465.78;4984673;28;20041;-69
2022/12/13 06:16:05;;;;;;;7.70;5.72;;;;;;;1.80;90.43;98462.06;4948821;28;20444;-69
2022/12/13 06:18:33;;;;;;;8.57;5.68;;;;;;;1.96;90.18;98465.50;5000926;28;20041;-69
2022/12/13 06:21:00;;;;;;;7.38;5.20;;;;;;;1.88;89.95;98457.22;4978154;28;20037;-69
2022/12/13 06:23:25;;;;;;;9.13;4.85;;;;;;;1.80;90.00;98469.94;4961657;28;20056;-69
2022/12/13 06:25:49;;;;;;;8.20;4.82;;;;;;;1.97;89.49;98469.00;4997944;28;20566;-69
2022/12/13 06:28:14;;;;;;;8.73;5.20;;;;;;;2.03;89.87;98471.28;4998423;28;20832;-70
2022/12/13 06:30:39;;;;;;;7.43;4.72;;;;;;;1.84;89.31;98474.06;4997818;28;20420;-69
2022/12/13 06:33:03;;;;;;;7.97;4.93;;;;;;;1.93;89.72;98473.56;4999057;28;20041;-73
2022/12/13 06:35:28;;;;;;;8.07;5.32;;;;;;;1.92;89.52;98481.56;4981791;28;20104;-71
2022/12/13 06:37:53;;;;;;;6.65;4.88;;;;;;;1.86;89.63;98481.88;4979151;28;20045;-72
2022/12/13 06:40:17;;;;;;;11.18;5.55;;;;;;;1.96;89.92;98486.53;4994644;28;20068;-71
2022/12/13 06:42:42;;;;;;;9.85;6.10;;;;;;;1.93;90.00;98494.59;4983510;28;20408;-71
2022/12/13 06:45:06;;;;;;;8.38;5.10;;;;;;;2.00;89.94;98498.59;5001315;28;20049;-70
2022/12/13 06:47:31;;;;;;;12.45;5.75;;;;;;;1.86;89.76;98503.75;4963325;28;20047;-70
2022/12/13 06:49:56;;;;;;;8.48;4.90;;;;;;;2.02;89.99;98503.78;5000972;28;20060;-72
2022/12/13 06:52:20;;;;;;;9.55;5.82;;;;;;;1.98;90.05;98512.75;4986148;28;20045;-71
2022/12/13 06:54:45;;;;;;;9.98;5.20;;;;;;;2.00;89.68;98524.88;4997753;28;20047;-70
2022/12/13 06:57:11;;;;;;;11.75;7.22;;;;;;;1.86;89.95;98530.03;4998247;28;20041;-71
2022/12/13 06:59:35;;;;;;;11.82;6.95;;;;;;;1.85;89.60;98530.09;4998082;28;20049;-70
2022/12/13 07:02:00;;;;;;;8.98;5.65;;;;;;;1.92;89.91;98534.13;4979513;28;20051;-69
2022/12/13 07:04:25;;;;;;;8.02;5.25;;;;;;;2.03;90.15;98531.75;4979392;28;20444;-69
2022/12/13 07:06:49;;;;;;;11.35;7.93;;;;;;;1.97;89.71;98535.56;5001315;28;20064;-68
2022/12/13 07:09:14;;;;;;;9.68;6.38;;;;;;;1.86;89.88;98540.53;4979325;28;20069;-65
2022/12/13 07:11:38;;;;;;;8.32;5.72;;;;;;;2.00;89.67;98535.38;4997230;28;20116;-66
2022/12/13 07:14:03;;;;;;;7.88;5.47;;;;;;;1.96;89.74;98535.63;4997146;28;20562;-65
2022/12/13 07:16:29;;;;;;;11.98;6.20;;;;;;;2.08;90.03;98533.19;4979142;28;20041;-66
2022/12/13 07:18:55;;;;;;;6.25;4.03;;;;;;;2.30;89.45;98548.63;4979243;28;20104;-69
2022/12/13 07:21:19;;;;;;;8.75;5.93;;;;;;;2.25;89.07;98553.31;4978997;28;20033;-70
2022/12/13 07:23:44;;;;;;;9.57;6.78;;;;;;;1.98;88.85;98552.16;4978879;28;20099;-69
2022/12/13 07:26:09;;;;;;;11.20;5.93;;;;;;;1.96;89.30;98561.91;4995136;28;20569;-68
2022/12/13 07:28:35;;;;;;;12.57;7.28;;;;;;;1.87;89.08;98565.88;4978487;28;20060;-69
2022/12/13 07:31:02;;;;;;;10.52;6.03;;;;;;;1.86;89.58;98558.09;4996295;28;20048;-71
2022/12/13 07:33:31;;;;;;;9.23;6.03;;;;;;;1.80;90.14;98567.16;4995046;28;20163;-69
2022/12/13 07:36:02;;;;;;;11.15;7.45;;;;;;;1.80;90.28;98561.91;4995039;28;20064;-70
2022/12/13 07:38:27;;;;;;;11.57;6.30;;;;;;;1.89;90.23;98565.81;4977487;28;20428;-68
2022/12/13 07:40:55;;;;;;;11.00;6.75;;;;;;;1.93;89.68;98578.69;4996105;28;20045;-69
2022/12/13 07:43:20;;;;;;;14.45;7.90;;;;;;;1.99;89.83;98569.63;4978344;28;20095;-71
2022/12/13 07:45:45;;;;;;;12.35;7.57;;;;;;;1.97;89.47;98574.13;4961875;28;20049;-67
2022/12/13 07:48:10;;;;;;;11.82;7.28;;;;;;;2.06;89.59;98582.34;4995954;28;20048;-69
2022/12/13 07:50:35;;;;;;;14.35;5.82;;;;;;;2.08;88.81;98577.88;4961903;28;20052;-68
2022/12/13 07:53:04;;;;;;;10.85;7.38;;;;;;;2.07;89.24;98580.59;4995971;28;20036;-70
2022/12/13 07:55:30;;;;;;;12.27;7.82;;;;;;;1.93;89.10;98578.69;4978434;28;20041;-69
2022/12/13 07:58:00;;;;;;;10.20;6.35;;;;;;;2.05;89.43;98577.19;4961807;28;20833;-68
2022/12/13 08:00:25;;;;;;;11.02;7.10;;;;;;;2.08;89.40;98574.41;4995949;28;20068;-70
2022/12/13 08:02:50;;;;;;;10.13;6.75;;;;;;;2.07;89.36;98572.69;4994209;28;20033;-69
2022/12/13 08:05:14;;;;;;;9.85;6.50;;;;;;;2.13;89.25;98570.59;4995954;28;20052;-69
2022/12/13 08:07:39;;;;;;;10.18;6.45;;;;;;;2.10;89.09;98581.28;4979085;28;20784;-70
2022/12/13 08:10:04;;;;;;;10.93;6.20;;;;;;;2.22;89.12;98598.16;4997176;28;20045;-70
2022/12/13 08:12:29;;;;;;;9.52;4.10;;;;;;;2.35;88.96;98607.09;4962310;28;20520;-69
2022/12/13 08:14:55;;;;;;;10.82;7.50;;;;;;;2.07;88.89;98604.25;4974747;28;20050;-69
2022/12/13 08:17:20;;;;;;;11.73;7.32;;;;;;;2.01;88.66;98601.94;4961639;28;20044;-69
2022/12/13 08:19:45;;;;;;;11.50;8.00;;;;;;;1.94;89.11;98595.31;4947736;28;20192;-68
2022/12/13 08:22:13;;;;;;;12.45;7.38;;;;;;;1.92;89.33;98584.88;4961497;28;20065;-66
2022/12/13 08:24:38;;;;;;;4.93;3.30;;;;;;;2.05;89.59;98603.47;4995448;28;20393;-67
2022/12/13 08:27:03;;;;;;;9.27;6.53;;;;;;;2.08;89.56;98600.69;4995168;28;20099;-69
2022/12/13 08:29:30;;;;;;;12.40;7.43;;;;;;;1.99;89.64;98604.66;4974490;28;20069;-70
2022/12/13 08:31:54;;;;;;;15.82;7.80;;;;;;;1.85;89.60;98611.56;4942805;28;20518;-70
2022/12/13 08:34:19;;;;;;;8.00;6.10;;;;;;;1.89;89.85;98618.38;4974502;28;20568;-69
2022/12/13 08:36:44;;;;;;;13.77;7.50;;;;;;;1.88;89.91;98612.25;4973082;28;20404;-69
2022/12/13 08:39:08;;;;;;;8.10;4.80;;;;;;;1.91;89.70;98620.00;4977709;28;20107;-68
2022/12/13 08:41:33;;;;;;;10.73;5.32;;;;;;;1.90;89.40;98620.06;4960969;28;20041;-68
2022/12/13 08:43:57;;;;;;;10.27;4.88;;;;;;;1.87;89.07;98630.72;4961041;28;20045;-68
2022/12/13 08:46:22;;;;;;;4.05;3.63;;;;;;;1.87;89.06;98636.00;4977570;28;20573;-69
2022/12/13 08:48:47;;;;;;;4.60;2.75;;;;;;;1.82;88.79;98629.19;4988547;28;20049;-67
2022/12/13 08:51:13;;;;;;;5.90;2.42;;;;;;;1.87;88.97;98634.22;4977435;28;20038;-68
2022/12/13 08:53:38;;;;;;;4.07;2.67;;;;;;;1.81;88.49;98632.75;4993751;28;20061;-69
2022/12/13 08:56:06;;;;;;;2.47;2.05;;;;;;;1.88;88.66;98648.22;4961042;28;20038;-68
2022/12/13 08:58:31;;;;;;;2.58;2.10;;;;;;;1.75;88.41;98648.84;4977415;28;20049;-69
2022/12/13 09:00:56;;;;;;;2.50;1.90;;;;;;;1.71;88.21;98651.69;4979110;28;20060;-69
2022/12/13 09:03:21;;;;;;;3.28;2.10;;;;;;;1.68;88.25;98647.47;4961620;28;20041;-69
2022/12/13 09:05:46;;;;;;;2.70;2.33;;;;;;;1.60;87.99;98647.00;4994258;28;20085;-69
2022/12/13 09:08:11;;;;;;;2.25;2.05;;;;;;;1.67;88.53;98655.44;4960876;28;20140;-69
2022/12/13 09:10:36;;;;;;;3.17;1.92;;;;;;;1.65;88.43;98663.38;4995092;28;20496;-68
2022/12/13 09:13:00;;;;;;;2.58;1.27;;;;;;;1.71;88.18;98655.16;4977117;28;20171;-69
2022/12/13 09:15:26;;;;;;;2.55;1.98;;;;;;;1.77;88.46;98656.66;4958123;28;20431;-68
2022/12/13 09:17:51;;;;;;;5.13;2.22;;;;;;;1.74;88.29;98659.44;4971185;28;20037;-68
2022/12/13 09:20:16;;;;;;;5.75;3.40;;;;;;;1.68;87.97;98660.59;4958387;28;20044;-68
2022/12/13 09:22:40;;;;;;;5.43;3.10;;;;;;;1.68;87.43;98657.97;4987239;28;20127;-68
2022/12/13 09:25:05;;;;;;;4.22;2.88;;;;;;;1.77;87.60;98661.91;4996035;28;20223;-68
2022/12/13 09:27:31;;;;;;;5.30;3.08;;;;;;;1.82;87.76;98663.34;4996161;28;20038;-68
2022/12/13 09:29:56;;;;;;;4.85;3.08;;;;;;;1.84;87.44;98668.53;4977983;28;20052;-68
2022/12/13 09:32:21;;;;;;;3.03;2.67;;;;;;;1.84;87.47;98673.78;4977984;28;20045;-68
2022/12/13 09:34:46;;;;;;;3.42;3.13;;;;;;;1.87;87.16;98678.03;4977935;28;20135;-68
2022/12/13 09:37:12;;;;;;;5.22;3.35;;;;;;;1.88;86.61;98680.59;4978290;28;20041;-69
2022/12/13 09:39:37;;;;;;;4.18;3.08;;;;;;;1.82;86.00;98675.63;4978845;28;20052;-66
2022/12/13 09:42:02;;;;;;;5.00;3.08;;;;;;;1.85;85.83;98678.13;4962454;28;20128;-68
2022/12/13 09:44:31;;;;;;;8.27;3.30;;;;;;;1.82;85.84;98680.91;4996438;28;20128;-69
2022/12/13 09:46:59;;;;;;;9.55;4.80;;;;;;;1.65;84.82;98683.53;4979026;28;20053;-68
2022/12/13 09:49:30;;;;;;;7.43;4.28;;;;;;;1.60;84.64;98681.13;4996861;28;20033;-68
2022/12/13 09:51:58;;;;;;;5.55;3.75;;;;;;;1.63;84.72;98686.25;4997042;28;20052;-68
2022/12/13 09:54:24;;;;;;;11.13;5.10;;;;;;;1.56;84.86;98686.63;4978659;28;20160;-69
2022/12/13 09:56:50;;;;;;;7.93;4.50;;;;;;;1.53;84.61;98685.00;4995630;28;20037;-69
2022/12/13 09:59:16;;;;;;;7.95;5.00;;;;;;;1.50;84.93;98679.91;4994284;28;20100;-68
2022/12/13 10:01:41;;;;;;;5.40;3.95;;;;;;;1.56;85.41;98686.63;4996497;28;20032;-72
2022/12/13 10:04:12;;;;;;;7.88;4.38;;;;;;;1.56;85.35;98699.78;4997943;28;20045;-69
2022/12/13 10:06:38;;;;;;;5.57;3.42;;;;;;;1.56;85.39;98700.63;4996729;28;20421;-69
2022/12/13 10:09:09;;;;;;;4.90;3.67;;;;;;;1.56;85.37;98705.03;4977002;28;20412;-69
2022/12/13 10:11:35;;;;;;;10.25;5.07;;;;;;;1.51;85.22;98707.03;4978348;28;20029;-69
2022/12/13 10:14:04;;;;;;;7.53;4.60;;;;;;;1.42;84.88;98703.94;4980411;28;20041;-69
2022/12/13 10:16:35;;;;;;;9.05;4.70;;;;;;;1.39;84.55;98706.69;4998862;28;20046;-67
2022/12/13 10:19:16;;;;;;;7.50;4.47;;;;;;;1.45;85.26;98718.69;4998363;28;20408;-69
2022/12/13 10:21:43;;;;;;;8.77;4.63;;;;;;;1.38;85.04;98719.91;4997946;28;20029;-68
2022/12/13 10:24:18;;;;;;;6.13;4.10;;;;;;;1.34;85.07;98719.22;4982502;28;20464;-68
2022/12/13 10:26:43;;;;;;;6.63;4.43;;;;;;;1.31;84.64;98715.88;4977048;28;20071;-66
2022/12/13 10:29:09;;;;;;;5.25;4.00;;;;;;;1.37;84.77;98715.56;4976656;28;20041;-67
2022/12/13 10:31:47;;;;;;;8.13;5.55;;;;;;;1.29;84.55;98723.84;4985685;28;20400;-68
2022/12/13 10:34:19;;;;;;;6.63;4.47;;;;;;;1.25;83.91;98721.41;4997276;28;20049;-68
2022/12/13 10:36:44;;;;;;;6.82;4.45;;;;;;;1.28;84.14;98722.13;4977508;28;20041;-68
2022/12/13 10:39:17;;;;;;;6.60;4.28;;;;;;;1.32;84.06;98722.84;4997500;28;20045;-66
2022/12/13 10:41:41;;;;;;;5.47;3.53;;;;;;;1.27;84.10;98727.44;4976576;28;20116;-69
2022/12/13 10:44:08;;;;;;;5.90;4.43;;;;;;;1.27;84.05;98735.31;4997915;28;20156;-69
2022/12/13 10:46:33;;;;;;;10.10;5.78;;;;;;;1.28;83.81;98732.63;4968098;28;20953;-69
2022/12/13 10:48:58;;;;;;;8.10;5.18;;;;;;;1.25;83.47;98737.16;4977456;28;20103;-68
2022/12/13 10:51:23;;;;;;;8.70;5.65;;;;;;;1.25;83.48;98726.66;4995759;28;20107;-71
2022/12/13 10:53:53;;;;;;;11.48;6.97;;;;;;;1.27;83.67;98735.31;4997194;28;20052;-69
2022/12/13 10:56:21;;;;;;;8.48;5.18;;;;;;;1.22;83.24;98747.84;4962488;28;20061;-69
2022/12/13 10:58:51;;;;;;;9.82;5.95;;;;;;;1.18;83.23;98747.13;4971452;28;20136;-68
2022/12/13 11:01:25;;;;;;;7.03;5.35;;;;;;;1.21;83.63;98747.00;4979385;28;20026;-68
2022/12/13 11:04:00;;;;;;;11.38;6.68;;;;;;;1.17;83.53;98747.19;4995888;28;20041;-68
2022/12/13 11:06:26;;;;;;;8.82;6.30;;;;;;;1.01;83.22;98749.72;4978881;28;20049;-69
2022/12/13 11:08:52;;;;;;;10.75;6.22;;;;;;;0.93;83.54;98743.94;4979279;28;20049;-70
2022/12/13 11:11:26;;;;;;;11.02;6.20;;;;;;;0.99;83.68;98762.06;4996837;28;20553;-71
2022/12/13 11:13:52;;;;;;;12.02;6.60;;;;;;;1.01;83.51;98763.69;4958516;28;20041;-70
2022/12/13 11:16:29;;;;;;;9.90;6.20;;;;;;;1.04;83.99;98766.16;4974478;28;20475;-70
2022/12/13 11:18:58;;;;;;;11.48;6.65;;;;;;;0.98;83.50;98763.81;4984639;28;20041;-68
2022/12/13 11:21:25;;;;;;;10.68;7.03;;;;;;;0.96;83.62;98768.28;4979845;28;20053;-72
2022/12/13 11:23:50;;;;;;;10.98;6.35;;;;;;;0.90;83.08;98762.50;4981426;28;20072;-70
2022/12/13 11:26:19;;;;;;;10.00;6.40;;;;;;;0.83;82.73;98771.53;4941070;28;20124;-73
2022/12/13 11:29:02;;;;;;;10.25;6.40;;;;;;;0.92;82.99;98771.97;4985783;28;20044;-71
2022/12/13 11:31:33;;;;;;;8.57;5.90;;;;;;;0.92;82.81;98782.47;4998993;28;20037;-69
2022/12/13 11:34:23;;;;;;;9.00;6.07;;;;;;;0.91;82.47;98787.78;4984880;28;20043;-69
2022/12/13 11:37:06;;;;;;;9.80;6.15;;;;;;;1.00;82.91;98785.59;4997149;28;20052;-68
2022/12/13 11:39:35;;;;;;;15.48;7.18;;;;;;;0.82;82.30;98790.84;4997691;28;20056;-69
2022/12/13 11:42:16;;;;;;;9.27;6.20;;;;;;;0.79;82.66;98786.56;4996464;28;20101;-70
2022/12/13 11:45:13;;;;;;;9.73;6.13;;;;;;;0.76;82.16;98781.47;4978794;28;20053;-68
2022/12/13 11:47:47;;;;;;;8.35;5.93;;;;;;;0.76;82.77;98791.97;4910519;28;20042;-74